createdAt,value
2023-01-09T00:01:20.732Z,66122.03
2023-01-09T00:06:25.419Z,66194.09
2023-01-09T00:11:30.284Z,66171.78
2023-01-09T00:16:36.268Z,66216.88
2023-01-09T00:21:40.968Z,66164.78
2023-01-09T00:26:45.406Z,66130.06
2023-01-09T00:31:51.939Z,66113.91
2023-01-09T00:36:56.556Z,66130.59
2023-01-09T00:42:00.934Z,66122.63
2023-01-09T00:47:13.708Z,66170.16
2023-01-09T00:52:18.614Z,66168.00
2023-01-09T00:57:23.078Z,66292.84
2023-01-09T01:02:29.074Z,66269.34
2023-01-09T01:07:39.758Z,66281.84
2023-01-09T01:12:45.263Z,66260.22
2023-01-09T01:17:50.978Z,66186.84
2023-01-09T01:22:55.364Z,66254.41
2023-01-09T01:27:59.618Z,66281.22
2023-01-09T01:33:05.599Z,66169.53
2023-01-09T01:38:09.887Z,66214.72
2023-01-09T01:43:14.529Z,66214.28
2023-01-09T01:48:24.460Z,66232.31
2023-01-09T01:53:33.534Z,66206.16
2023-01-09T01:58:43.165Z,66261.75
2023-01-09T02:03:49.737Z,66258.81
2023-01-09T02:08:54.478Z,66254.41
2023-01-09T02:14:00.556Z,66331.56
2023-01-09T02:19:21.154Z,66309.13
2023-01-09T02:24:54.832Z,66226.50
2023-01-09T02:30:29.680Z,66217.31
2023-01-09T02:35:53.224Z,66224.81
2023-01-09T02:41:03.588Z,66200.16
2023-01-09T02:46:20.659Z,66169.72
2023-01-09T02:51:36.768Z,66145.16
2023-01-09T02:56:57.347Z,66152.03
2023-01-09T03:02:25.403Z,66144.53
2023-01-09T03:07:37.917Z,66178.63
2023-01-09T03:12:44.454Z,66153.19
2023-01-09T03:17:51.991Z,66108.44
2023-01-09T03:22:57.827Z,66135.84
2023-01-09T03:28:04.640Z,66131.66
2023-01-09T03:33:10.648Z,66110.59
2023-01-09T03:38:15.139Z,66134.34
2023-01-09T03:43:19.784Z,66089.16
2023-01-09T03:48:25.897Z,66120.34
2023-01-09T03:53:30.552Z,66139.25
2023-01-09T03:58:34.999Z,66133.19
2023-01-09T04:03:41.528Z,66091.31
2023-01-09T04:08:46.502Z,66092.41
2023-01-09T04:13:50.776Z,66098.91
2023-01-09T04:18:56.545Z,66099.78
2023-01-09T04:24:00.832Z,66111.75
2023-01-09T04:29:05.235Z,66100.97
2023-01-09T04:34:11.012Z,66105.78
2023-01-09T04:39:15.286Z,66102.03
2023-01-09T04:44:20.941Z,66109.25
2023-01-09T04:49:26.864Z,66111.41
2023-01-09T04:54:30.930Z,66130.94
2023-01-09T04:59:35.314Z,66152.41
2023-01-09T05:04:41.122Z,66138.63
2023-01-09T05:09:45.464Z,66095.78
2023-01-09T05:14:49.780Z,66093.09
2023-01-09T05:19:55.738Z,66111.84
2023-01-09T05:25:00.623Z,66106.31
2023-01-09T05:30:05.670Z,66087.22
2023-01-09T05:35:12.034Z,66108.00
2023-01-09T05:40:16.439Z,66072.13
2023-01-09T05:45:20.825Z,66134.88
2023-01-09T05:50:26.756Z,66106.84
2023-01-09T05:55:31.026Z,66065.78
2023-01-09T06:00:35.313Z,66078.66
2023-01-09T06:05:40.963Z,66108.97
2023-01-09T06:10:45.042Z,66096.84
2023-01-09T06:15:50.035Z,66096.22
2023-01-09T06:20:55.761Z,66100.50
2023-01-09T06:26:00.209Z,66093.00
2023-01-09T06:31:04.840Z,66153.63
2023-01-09T06:36:11.087Z,66176.59
2023-01-09T06:41:15.474Z,66147.09
2023-01-09T06:46:20.001Z,66149.88
2023-01-09T06:51:26.027Z,66178.72
2023-01-09T06:56:30.380Z,66135.84
2023-01-09T07:01:34.969Z,66065.34
2023-01-09T07:06:40.976Z,66181.31
2023-01-09T07:11:45.246Z,66247.81
2023-01-09T07:16:49.978Z,66231.50
2023-01-09T07:21:55.895Z,66250.13
2023-01-09T07:27:00.564Z,66260.69
2023-01-09T07:32:05.139Z,66295.19
2023-01-09T07:37:11.076Z,66259.94
2023-01-09T07:42:16.425Z,66282.75
2023-01-09T07:47:20.966Z,66297.41
2023-01-09T07:52:28.072Z,66274.88
2023-01-09T07:57:32.798Z,66280.06
2023-01-09T08:02:37.181Z,66211.41
2023-01-09T08:07:44.130Z,66191.69
2023-01-09T08:12:49.004Z,66244.22
2023-01-09T08:17:53.564Z,66228.50
2023-01-09T08:22:59.538Z,66195.44
2023-01-09T08:28:03.859Z,66209.38
2023-01-09T08:33:08.675Z,66162.66
2023-01-09T08:38:14.688Z,66176.03
2023-01-09T08:43:36.569Z,66153.63
2023-01-09T08:48:41.013Z,66158.47
2023-01-09T08:53:46.927Z,66194.81
2023-01-09T08:58:51.022Z,66167.56
2023-01-09T09:03:55.742Z,66146.50
2023-01-09T09:09:03.460Z,66184.53
2023-01-09T09:14:28.059Z,66199.28
2023-01-09T09:19:32.767Z,66129.34
2023-01-09T09:24:39.189Z,66139.16
2023-01-09T09:29:43.816Z,66153.00
2023-01-09T09:34:48.390Z,66126.84
2023-01-09T09:39:55.361Z,66141.84
2023-01-09T09:45:23.037Z,66126.13
2023-01-09T09:50:39.184Z,66133.19
2023-01-09T09:55:48.081Z,66130.69
2023-01-09T10:00:53.300Z,66054.44
2023-01-09T10:06:02.021Z,65998.94
2023-01-09T10:11:14.703Z,66066.69
2023-01-09T10:16:33.270Z,66105.97
2023-01-09T10:21:48.369Z,66154.25
2023-01-09T10:26:55.364Z,66162.81
2023-01-09T10:32:21.629Z,66164.34
2023-01-09T10:37:29.784Z,66179.97
2023-01-09T10:42:41.427Z,66190.63
2023-01-09T10:47:46.784Z,66250.03
2023-01-09T10:52:53.426Z,66208.75
2023-01-09T10:58:02.942Z,66159.69
2023-01-09T11:03:07.663Z,66183.47
2023-01-09T11:08:22.784Z,66171.13
2023-01-09T11:13:31.896Z,66163.72
2023-01-09T11:18:39.561Z,66203.47
2023-01-09T11:23:43.893Z,66226.88
2023-01-09T11:29:08.769Z,66230.81
2023-01-09T11:34:19.221Z,66261.94
2023-01-09T11:39:26.491Z,66318.63
2023-01-09T11:44:34.299Z,66250.13
2023-01-09T11:49:38.593Z,66207.22
2023-01-09T11:54:46.234Z,66269.97
2023-01-09T11:59:54.431Z,66253.16
2023-01-09T12:05:03.291Z,66232.41
2023-01-09T12:10:30.837Z,66257.91
2023-01-09T12:15:45.375Z,66238.75
2023-01-09T12:21:03.443Z,66174.00
2023-01-09T12:26:18.455Z,66250.13
2023-01-09T12:31:38.960Z,66191.06
2023-01-09T12:36:55.174Z,66172.38
2023-01-09T12:42:36.569Z,66189.44
2023-01-09T12:47:47.487Z,66207.66
2023-01-09T12:53:06.411Z,66186.69
2023-01-09T12:58:19.832Z,66154.69
2023-01-09T13:03:33.893Z,66202.84
2023-01-09T13:08:41.927Z,66232.94
2023-01-09T13:13:51.349Z,66240.38
2023-01-09T13:19:02.195Z,66247.97
2023-01-09T13:24:17.266Z,66250.13
2023-01-09T13:29:25.392Z,66218.38
2023-01-09T13:34:36.286Z,66187.31
2023-01-09T13:39:41.105Z,66242.09
2023-01-09T13:44:47.414Z,66215.19
2023-01-09T13:50:27.609Z,66138.19
2023-01-09T13:55:37.242Z,66136.47
2023-01-09T14:00:50.916Z,66110.97
2023-01-09T14:06:18.580Z,66174.44
2023-01-09T14:11:27.559Z,66114.50
2023-01-09T14:16:33.233Z,66126.66
2023-01-09T14:21:51.614Z,66150.22
2023-01-09T14:26:58.007Z,66226.34
2023-01-09T14:32:36.639Z,66170.16
2023-01-09T14:37:45.020Z,66200.34
2023-01-09T14:42:55.417Z,66213.66
2023-01-09T14:48:03.414Z,66240.81
2023-01-09T14:53:14.374Z,66218.84
2023-01-09T14:58:26.789Z,66188.38
2023-01-09T15:03:34.917Z,66220.53
2023-01-09T15:08:41.128Z,66212.59
2023-01-09T15:13:49.103Z,66177.19
2023-01-09T15:18:57.259Z,66193.81
2023-01-09T15:24:22.210Z,66215.78
2023-01-09T15:29:28.767Z,66210.44
2023-01-09T15:34:34.637Z,66117.56
2023-01-09T15:39:41.320Z,66124.69
2023-01-09T15:44:48.735Z,66227.06
2023-01-09T15:49:54.095Z,66253.81
2023-01-09T15:55:00.043Z,66247.53
2023-01-09T16:00:27.743Z,66214.09
2023-01-09T16:05:33.481Z,66242.00
2023-01-09T16:10:39.524Z,66213.03
2023-01-09T16:15:46.909Z,66227.50
2023-01-09T16:21:01.998Z,66184.16
2023-01-09T16:26:13.639Z,66207.66
2023-01-09T16:31:23.942Z,66206.69
2023-01-09T16:36:30.063Z,66183.63
2023-01-09T16:41:53.318Z,66231.88
2023-01-09T16:46:58.101Z,66189.44
2023-01-09T16:52:03.236Z,66140.31
2023-01-09T16:57:12.462Z,66117.63
2023-01-09T17:02:19.651Z,66007.88
2023-01-09T17:07:26.376Z,66034.53
2023-01-09T17:12:32.464Z,65992.97
2023-01-09T17:17:37.086Z,65993.41
2023-01-09T17:22:41.675Z,65935.72
2023-01-09T17:28:05.052Z,66031.41
2023-01-09T17:33:15.924Z,65998.78
2023-01-09T17:38:20.523Z,66013.13
2023-01-09T17:43:26.374Z,66013.66
2023-01-09T17:48:30.779Z,66027.16
2023-01-09T17:53:35.318Z,66092.41
2023-01-09T17:58:41.222Z,66025.72
2023-01-09T18:03:46.940Z,66092.56
2023-01-09T18:08:51.484Z,66131.06
2023-01-09T18:13:57.551Z,66121.03
2023-01-09T18:19:03.164Z,66127.94
2023-01-09T18:24:08.385Z,66151.13
2023-01-09T18:29:15.293Z,66143.38
2023-01-09T18:34:19.737Z,66156.94
2023-01-09T18:39:24.165Z,66100.06
2023-01-09T18:44:30.163Z,66099.34
2023-01-09T18:49:34.686Z,66031.41
2023-01-09T18:54:39.187Z,66060.53
2023-01-09T18:59:45.106Z,66057.84
2023-01-09T19:04:49.402Z,66094.16
2023-01-09T19:09:53.824Z,66128.81
2023-01-09T19:14:59.625Z,66133.19
2023-01-09T19:20:04.920Z,66167.56
2023-01-09T19:25:12.069Z,66188.38
2023-01-09T19:30:18.656Z,66265.69
2023-01-09T19:35:23.024Z,66283.38
2023-01-09T19:40:27.557Z,66215.25
2023-01-09T19:45:33.686Z,66127.38
2023-01-09T19:50:38.162Z,66114.09
2023-01-09T19:55:42.847Z,66088.72
2023-01-09T20:00:49.532Z,66111.69
2023-01-09T20:05:53.832Z,66120.94
2023-01-09T20:10:58.182Z,66110.16
2023-01-09T20:16:05.164Z,66147.22
2023-01-09T20:21:10.196Z,66172.19
2023-01-09T20:26:16.561Z,66188.38
2023-01-09T20:31:24.182Z,66225.38
2023-01-09T20:36:30.333Z,66134.88
2023-01-09T20:41:35.467Z,66046.84
2023-01-09T20:46:43.215Z,66082.75
2023-01-09T20:51:50.007Z,66114.88
2023-01-09T20:56:54.431Z,66137.03
2023-01-09T21:02:00.651Z,66170.25
2023-01-09T21:07:05.118Z,66212.41
2023-01-09T21:12:23.703Z,66168.09
2023-01-09T21:17:29.804Z,66171.66
2023-01-09T21:22:35.108Z,66205.53
2023-01-09T21:27:41.433Z,66124.16
2023-01-09T21:32:47.505Z,66036.25
2023-01-09T21:37:51.934Z,66056.59
2023-01-09T21:43:13.535Z,66007.50
2023-01-09T21:48:19.425Z,66049.66
2023-01-09T21:53:23.598Z,65998.59
2023-01-09T21:58:28.132Z,66136.47
2023-01-09T22:03:34.136Z,66067.31
2023-01-09T22:08:38.634Z,66159.44
2023-01-09T22:13:43.101Z,66186.22
2023-01-09T22:18:50.198Z,66180.88
2023-01-09T22:23:55.152Z,66153.09
2023-01-09T22:28:59.470Z,66160.06
2023-01-09T22:34:05.524Z,66159.00
2023-01-09T22:39:12.603Z,66224.38
2023-01-09T22:44:16.894Z,66140.16
2023-01-09T22:49:26.383Z,66129.00
2023-01-09T22:54:32.623Z,66070.00
2023-01-09T22:59:37.085Z,66138.09
2023-01-09T23:04:42.844Z,66116.56
2023-01-09T23:10:05.814Z,65970.59
2023-01-09T23:15:10.744Z,66044.72
2023-01-09T23:20:16.717Z,66139.16
2023-01-09T23:25:21.058Z,66059.81
2023-01-09T23:30:25.534Z,66127.28
2023-01-09T23:35:32.558Z,66156.84
2023-01-09T23:40:37.378Z,66208.19
2023-01-09T23:45:43.179Z,66222.78
2023-01-09T23:50:51.815Z,66251.66
2023-01-09T23:55:56.231Z,66265.16
